sensor_id;sensor_type;location;lat;lon;timestamp;pressure;altitude;pressure_sealevel;temperature;humidity
21956;BME280;11142;49.930;8.606;2023-02-19T20:17:20;101087.81;;;10.33;100.00
21956;BME280;11142;49.930;8.606;2023-02-19T20:20:14;101091.72;;;10.23;100.00
21956;BME280;11142;49.930;8.606;2023-02-19T20:22:58;101093.56;;;10.40;100.00
21956;BME280;11142;49.930;8.606;2023-02-19T20:25:30;101092.41;;;10.45;100.00
21956;BME280;11142;49.930;8.606;2023-02-19T20:28:02;101094.72;;;10.51;100.00
21956;BME280;11142;49.930;8.606;2023-02-19T20:31:03;101097.31;;;10.51;100.00
21956;BME280;11142;49.930;8.606;2023-02-19T20:33:36;101102.00;;;10.43;100.00
21956;BME280;11142;49.930;8.606;2023-02-19T20:36:27;101106.16;;;10.29;100.00
21956;BME280;11142;49.930;8.606;2023-02-19T20:38:57;101109.75;;;10.26;100.00
21956;BME280;11142;49.930;8.606;2023-02-19T20:41:25;101116.25;;;10.16;100.00
21956;BME280;11142;49.930;8.606;2023-02-19T20:43:56;101118.09;;;9.94;100.00
21956;BME280;11142;49.930;8.606;2023-02-19T20:46:26;101123.59;;;9.86;100.00
21956;BME280;11142;49.930;8.606;2023-02-19T20:48:59;101126.56;;;9.97;100.00
21956;BME280;11142;49.930;8.606;2023-02-19T20:51:42;101130.50;;;10.06;100.00
21956;BME280;11142;49.930;8.606;2023-02-19T20:54:21;101132.97;;;10.09;100.00
21956;BME280;11142;49.930;8.606;2023-02-19T20:57:04;101128.63;;;10.09;100.00
21956;BME280;11142;49.930;8.606;2023-02-19T20:59:49;101125.03;;;10.12;100.00
21956;BME280;11142;49.930;8.606;2023-02-19T21:02:27;101123.91;;;10.19;100.00
21956;BME280;11142;49.930;8.606;2023-02-19T21:04:57;101112.47;;;10.23;100.00
21956;BME280;11142;49.930;8.606;2023-02-19T21:07:30;101118.94;;;10.33;100.00
21956;BME280;11142;49.930;8.606;2023-02-19T21:10:08;101104.53;;;10.45;100.00
21956;BME280;11142;49.930;8.606;2023-02-19T21:12:44;101112.09;;;10.31;100.00
21956;BME280;11142;49.930;8.606;2023-02-19T21:15:20;101119.06;;;10.30;100.00
21956;BME280;11142;49.930;8.606;2023-02-19T21:17:54;101110.22;;;10.34;100.00
21956;BME280;11142;49.930;8.606;2023-02-19T21:20:25;101113.19;;;10.45;100.00
21956;BME280;11142;49.930;8.606;2023-02-19T21:23:11;101123.97;;;10.36;100.00
21956;BME280;11142;49.930;8.606;2023-02-19T21:25:44;101127.06;;;10.26;100.00
21956;BME280;11142;49.930;8.606;2023-02-19T21:28:32;101135.13;;;10.20;100.00
21956;BME280;11142;49.930;8.606;2023-02-19T21:31:07;101145.84;;;10.31;100.00
21956;BME280;11142;49.930;8.606;2023-02-19T21:33:44;101148.84;;;10.40;100.00
21956;BME280;11142;49.930;8.606;2023-02-19T21:36:31;101150.34;;;10.27;100.00
21956;BME280;11142;49.930;8.606;2023-02-19T21:39:03;101148.09;;;9.99;100.00
21956;BME280;11142;49.930;8.606;2023-02-19T21:41:33;101149.81;;;9.99;100.00
21956;BME280;11142;49.930;8.606;2023-02-19T21:44:06;101141.75;;;9.86;100.00
21956;BME280;11142;49.930;8.606;2023-02-19T21:46:38;101143.97;;;9.95;100.00
21956;BME280;11142;49.930;8.606;2023-02-19T21:49:14;101145.03;;;10.10;100.00
21956;BME280;11142;49.930;8.606;2023-02-19T21:51:50;101148.47;;;10.10;100.00
21956;BME280;11142;49.930;8.606;2023-02-19T21:54:19;101145.78;;;10.12;100.00
21956;BME280;11142;49.930;8.606;2023-02-19T21:57:01;101152.84;;;10.08;100.00
21956;BME280;11142;49.930;8.606;2023-02-19T21:59:51;101151.53;;;10.00;100.00
21956;BME280;11142;49.930;8.606;2023-02-19T22:02:47;101148.59;;;10.07;100.00
21956;BME280;11142;49.930;8.606;2023-02-19T22:05:26;101159.75;;;10.09;100.00
21956;BME280;11142;49.930;8.606;2023-02-19T22:08:14;101140.59;;;10.13;100.00
21956;BME280;11142;49.930;8.606;2023-02-19T22:19:00;101157.19;;;10.65;100.00
21956;BME280;11142;49.930;8.606;2023-02-19T22:21:55;101157.19;;;10.65;100.00
21956;BME280;11142;49.930;8.606;2023-02-19T22:24:25;101159.66;;;10.50;100.00
21956;BME280;11142;49.930;8.606;2023-02-19T22:27:00;101163.38;;;10.26;100.00
21956;BME280;11142;49.930;8.606;2023-02-19T22:29:33;101165.34;;;10.00;100.00
21956;BME280;11142;49.930;8.606;2023-02-19T22:32:22;101172.53;;;9.74;100.00
21956;BME280;11142;49.930;8.606;2023-02-19T22:35:08;101172.16;;;9.63;100.00
21956;BME280;11142;49.930;8.606;2023-02-19T22:37:41;101169.63;;;9.61;100.00
21956;BME280;11142;49.930;8.606;2023-02-19T22:40:14;101174.56;;;9.67;100.00
21956;BME280;11142;49.930;8.606;2023-02-19T22:42:43;101172.53;;;9.74;100.00
21956;BME280;11142;49.930;8.606;2023-02-19T22:45:15;101170.53;;;9.80;100.00
21956;BME280;11142;49.930;8.606;2023-02-19T22:47:45;101166.91;;;9.84;100.00
21956;BME280;11142;49.930;8.606;2023-02-19T22:50:21;101171.78;;;9.92;100.00
21956;BME280;11142;49.930;8.606;2023-02-19T22:52:54;101162.69;;;9.82;100.00
21956;BME280;11142;49.930;8.606;2023-02-19T22:55:25;101160.50;;;9.73;100.00
21956;BME280;11142;49.930;8.606;2023-02-19T22:57:56;101162.13;;;9.75;100.00
21956;BME280;11142;49.930;8.606;2023-02-19T23:00:28;101166.72;;;9.69;100.00
21956;BME280;11142;49.930;8.606;2023-02-19T23:03:00;101168.72;;;9.62;100.00
21956;BME280;11142;49.930;8.606;2023-02-19T23:05:29;101176.94;;;9.51;100.00
21956;BME280;11142;49.930;8.606;2023-02-19T23:07:59;101173.00;;;9.43;100.00
21956;BME280;11142;49.930;8.606;2023-02-19T23:10:32;101178.03;;;9.26;100.00
21956;BME280;11142;49.930;8.606;2023-02-19T23:13:18;101172.97;;;9.23;100.00
21956;BME280;11142;49.930;8.606;2023-02-19T23:15:47;101165.41;;;9.17;100.00
21956;BME280;11142;49.930;8.606;2023-02-19T23:18:44;101157.47;;;9.21;100.00
21956;BME280;11142;49.930;8.606;2023-02-19T23:21:22;101157.72;;;9.15;100.00
21956;BME280;11142;49.930;8.606;2023-02-19T23:24:01;101163.81;;;9.14;100.00
21956;BME280;11142;49.930;8.606;2023-02-19T23:26:56;101167.66;;;9.04;100.00
21956;BME280;11142;49.930;8.606;2023-02-19T23:29:51;101172.84;;;9.04;100.00
21956;BME280;11142;49.930;8.606;2023-02-19T23:32:28;101173.94;;;8.98;100.00
21956;BME280;11142;49.930;8.606;2023-02-19T23:35:03;101181.53;;;9.03;100.00
21956;BME280;11142;49.930;8.606;2023-02-19T23:38:00;101189.06;;;9.09;100.00
21956;BME280;11142;49.930;8.606;2023-02-19T23:40:31;101193.50;;;9.05;100.00
21956;BME280;11142;49.930;8.606;2023-02-19T23:43:49;101198.44;;;9.12;100.00
21956;BME280;11142;49.930;8.606;2023-02-19T23:46:26;101196.94;;;9.28;100.00
21956;BME280;11142;49.930;8.606;2023-02-19T23:49:07;101203.97;;;9.24;100.00
21956;BME280;11142;49.930;8.606;2023-02-19T23:52:20;101195.31;;;9.03;100.00
21956;BME280;11142;49.930;8.606;2023-02-19T23:54:50;101193.66;;;9.01;100.00
21956;BME280;11142;49.930;8.606;2023-02-19T23:57:33;101193.09;;;9.16;100.00
